Time;durP1;ratioP1;P1;durP2;ratioP2;P2;SDS_P1;SDS_P2;PMS_P1;PMS_P2;Temp;Humidity;BMP_temperature;BMP_pressure;BME280_temperature;BME280_humidity;BME280_pressure;Samples;Min_cycle;Max_cycle;Signal;HPM_P1;HPM_P2
2022/10/14 00:01:55;;;;;;;43.35;38.80;;;13.90;99.90;;;;;;5070537;28;20036;-82
2022/10/14 00:04:21;;;;;;;45.92;40.95;;;13.90;99.90;;;;;;5054565;28;20429;-82
2022/10/14 00:06:46;;;;;;;43.22;38.80;;;13.90;99.90;;;;;;5070916;28;20543;-82
2022/10/14 00:09:12;;;;;;;34.13;22.90;;;13.90;99.90;;;;;;5054185;28;20055;-82
2022/10/14 00:11:37;;;;;;;37.30;22.40;;;13.90;99.90;;;;;;5053971;28;20055;-82
2022/10/14 00:14:11;;;;;;;42.60;38.28;;;13.80;99.90;;;;;;5070642;28;20037;-83
2022/10/14 00:16:40;;;;;;;41.33;37.08;;;13.90;99.90;;;;;;5070638;28;20072;-82
2022/10/14 00:19:06;;;;;;;35.88;22.77;;;13.90;99.90;;;;;;5069983;28;20045;-82
2022/10/14 00:21:32;;;;;;;43.55;38.90;;;13.80;99.90;;;;;;5070318;28;20405;-82
2022/10/14 00:23:58;;;;;;;33.63;23.60;;;13.80;99.90;;;;;;5053745;28;20040;-82
2022/10/14 00:26:33;;;;;;;34.45;22.55;;;13.70;99.90;;;;;;5053657;28;20405;-82
2022/10/14 00:29:00;;;;;;;33.08;22.80;;;13.60;99.90;;;;;;5070209;28;20521;-82
2022/10/14 00:31:27;;;;;;;42.83;38.15;;;13.60;99.90;;;;;;5070383;28;20042;-82
2022/10/14 00:33:53;;;;;;;33.15;22.77;;;13.70;99.90;;;;;;5053583;28;20135;-82
2022/10/14 00:36:20;;;;;;;33.80;23.42;;;13.60;99.90;;;;;;5053717;28;20462;-82
2022/10/14 00:38:47;;;;;;;42.13;37.72;;;13.60;99.90;;;;;;5070514;28;20044;-82
2022/10/14 00:41:16;;;;;;;35.63;24.45;;;13.70;99.90;;;;;;5070244;28;20040;-82
2022/10/14 00:43:56;;;;;;;33.20;21.58;;;13.60;99.90;;;;;;5070521;28;20124;-82
2022/10/14 00:46:24;;;;;;;44.58;39.92;;;13.60;99.90;;;;;;5052827;28;20101;-82
2022/10/14 00:48:50;;;;;;;35.85;22.80;;;13.60;99.90;;;;;;5053332;28;20063;-82
2022/10/14 00:51:16;;;;;;;45.33;40.53;;;13.50;99.90;;;;;;5068653;28;20557;-82
2022/10/14 00:53:43;;;;;;;35.53;24.67;;;13.50;99.90;;;;;;5052498;28;20489;-82
2022/10/14 00:56:11;;;;;;;34.72;22.08;;;13.50;99.90;;;;;;5052684;28;20049;-82
2022/10/14 00:58:38;;;;;;;43.03;38.72;;;13.40;99.90;;;;;;5069579;28;20044;-82
2022/10/14 01:01:03;;;;;;;31.50;22.13;;;13.40;99.90;;;;;;5069655;28;20044;-82
2022/10/14 01:03:29;;;;;;;32.80;20.27;;;13.30;99.90;;;;;;5069832;28;20040;-82
2022/10/14 01:06:22;;;;;;;42.75;37.63;;;13.20;99.90;;;;;;5068964;28;20032;-82
2022/10/14 01:09:26;;;;;;;31.77;18.58;;;13.20;99.90;;;;;;5069768;28;20041;-82
2022/10/14 01:12:13;;;;;;;31.50;18.23;;;13.10;99.90;;;;;;5069842;28;20055;-82
2022/10/14 01:14:45;;;;;;;26.95;17.23;;;13.00;99.90;;;;;;5053588;28;20043;-81
2022/10/14 01:17:21;;;;;;;29.27;18.40;;;12.90;99.90;;;;;;5069609;28;20115;-82
2022/10/14 01:20:05;;;;;;;34.30;30.77;;;12.90;99.90;;;;;;5069641;28;20044;-82
2022/10/14 01:22:43;;;;;;;29.65;18.80;;;12.90;99.90;;;;;;5052622;28;20048;-82
2022/10/14 01:25:27;;;;;;;34.40;16.33;;;12.80;99.90;;;;;;5070471;28;20041;-82
2022/10/14 01:28:19;;;;;;;44.60;18.33;;;12.70;99.90;;;;;;5070064;28;20047;-82
2022/10/14 01:31:00;;;;;;;48.78;16.60;;;12.70;99.90;;;;;;5069224;28;20045;-82
2022/10/14 01:33:34;;;;;;;81.03;17.77;;;12.60;99.90;;;;;;5053316;28;20044;-82
2022/10/14 01:36:29;;;;;;;63.22;15.68;;;12.60;99.90;;;;;;5052640;28;20036;-82
2022/10/14 01:39:02;;;;;;;57.28;15.13;;;12.60;99.90;;;;;;5052940;28;20506;-82
2022/10/14 01:41:32;;;;;;;68.22;17.23;;;12.40;99.90;;;;;;5052620;28;20032;-82
2022/10/14 01:44:04;;;;;;;85.28;17.25;;;12.40;99.90;;;;;;5069797;28;20466;-82
2022/10/14 01:46:32;;;;;;;115.22;18.35;;;12.30;99.90;;;;;;5069486;28;20076;-82
2022/10/14 01:49:02;;;;;;;84.82;15.80;;;12.40;99.90;;;;;;5052932;28;20040;-82
2022/10/14 01:51:40;;;;;;;82.47;14.52;;;12.30;99.90;;;;;;5052810;28;20037;-82
2022/10/14 01:54:10;;;;;;;96.57;14.90;;;12.30;99.90;;;;;;5053102;28;20033;-82
2022/10/14 01:56:36;;;;;;;108.82;15.05;;;12.20;99.90;;;;;;5052359;28;20166;-82
2022/10/14 01:59:02;;;;;;;77.35;12.65;;;12.20;99.90;;;;;;5068945;28;20494;-82
2022/10/14 02:01:28;;;;;;;66.55;12.50;;;12.20;99.90;;;;;;5051728;28;20036;-82
2022/10/14 02:03:54;;;;;;;58.67;14.07;;;12.10;99.90;;;;;;5055559;28;20046;-83
2022/10/14 02:06:31;;;;;;;39.22;11.25;;;12.10;99.90;;;;;;5073195;28;20040;-83
2022/10/14 02:09:01;;;;;;;64.72;13.07;;;12.10;99.90;;;;;;5056865;28;20071;-82
2022/10/14 02:11:35;;;;;;;58.60;11.95;;;12.10;99.90;;;;;;5072988;28;20441;-82
2022/10/14 02:14:10;;;;;;;57.78;12.55;;;12.00;99.90;;;;;;5056042;28;20074;-82
2022/10/14 02:16:35;;;;;;;56.55;12.48;;;12.00;99.90;;;;;;5056791;28;20068;-82
2022/10/14 02:19:24;;;;;;;54.08;12.90;;;12.00;99.90;;;;;;5073045;28;20560;-83
2022/10/14 02:21:58;;;;;;;67.35;11.73;;;12.00;99.90;;;;;;5072854;28;20126;-83
2022/10/14 02:24:30;;;;;;;37.75;9.73;;;12.00;99.90;;;;;;5056168;28;20037;-83
2022/10/14 02:27:00;;;;;;;50.43;11.97;;;12.00;99.90;;;;;;5073016;28;20063;-83
2022/10/14 02:29:27;;;;;;;75.78;12.63;;;12.00;99.90;;;;;;5056183;28;20044;-83
2022/10/14 02:31:55;;;;;;;70.13;12.45;;;11.90;99.90;;;;;;5072582;28;20506;-83
2022/10/14 02:34:22;;;;;;;65.22;11.80;;;11.90;99.90;;;;;;5055801;28;20048;-82
2022/10/14 02:36:49;;;;;;;82.60;12.98;;;11.90;99.90;;;;;;5072800;28;20738;-83
2022/10/14 02:39:20;;;;;;;95.55;13.93;;;11.90;99.90;;;;;;5072545;28;20053;-83
2022/10/14 02:41:46;;;;;;;86.90;13.48;;;11.90;99.90;;;;;;5055763;28;20032;-83
2022/10/14 02:44:12;;;;;;;86.88;14.07;;;11.90;99.90;;;;;;5072899;28;20043;-83
2022/10/14 02:46:40;;;;;;;97.95;14.40;;;11.90;99.90;;;;;;5072375;28;20517;-82
2022/10/14 02:49:05;;;;;;;98.90;13.23;;;11.90;99.90;;;;;;5072197;28;20039;-82
2022/10/14 02:51:31;;;;;;;110.32;14.50;;;11.90;99.90;;;;;;5071492;28;20044;-82
2022/10/14 02:53:56;;;;;;;83.90;13.70;;;11.90;99.90;;;;;;5071822;28;20036;-83
2022/10/14 02:56:23;;;;;;;64.05;12.88;;;11.90;99.90;;;;;;5055765;28;20258;-83
2022/10/14 02:58:48;;;;;;;70.65;15.60;;;11.90;99.90;;;;;;5072023;28;20036;-83
2022/10/14 03:01:14;;;;;;;99.68;15.60;;;11.90;99.90;;;;;;5071924;28;20051;-83
2022/10/14 03:03:39;;;;;;;115.25;17.55;;;11.90;99.90;;;;;;5055466;28;20040;-83
2022/10/14 03:06:05;;;;;;;123.65;17.27;;;11.90;99.90;;;;;;5072132;28;20032;-82
2022/10/14 03:08:31;;;;;;;91.85;16.48;;;11.90;99.90;;;;;;5071835;28;20051;-83
2022/10/14 03:10:56;;;;;;;120.30;18.83;;;11.90;99.90;;;;;;5071462;28;20174;-82
2022/10/14 03:13:22;;;;;;;72.25;17.92;;;11.90;99.90;;;;;;5070758;28;20115;-83
2022/10/14 03:15:49;;;;;;;98.97;20.10;;;11.90;99.90;;;;;;5071860;28;20048;-82
2022/10/14 03:18:15;;;;;;;82.90;21.02;;;11.90;99.90;;;;;;5071798;28;20517;-82
2022/10/14 03:20:43;;;;;;;92.82;21.00;;;11.90;99.90;;;;;;5071123;28;20129;-83
2022/10/14 03:23:09;;;;;;;48.72;21.10;;;11.90;99.90;;;;;;5071372;28;20051;-82
2022/10/14 03:25:35;;;;;;;67.82;43.40;;;11.90;99.90;;;;;;5071993;28;20049;-82
2022/10/14 03:28:00;;;;;;;48.90;21.58;;;12.00;99.90;;;;;;5071824;28;20039;-83
2022/10/14 03:30:26;;;;;;;40.47;19.75;;;12.00;99.90;;;;;;5071604;28;20037;-82
2022/10/14 03:32:51;;;;;;;42.55;20.45;;;12.00;99.90;;;;;;5054432;28;20041;-82
2022/10/14 03:35:17;;;;;;;44.42;20.67;;;12.00;99.90;;;;;;5071675;28;20036;-82
2022/10/14 03:37:42;;;;;;;43.78;20.40;;;12.00;99.90;;;;;;5071397;28;20039;-83
2022/10/14 03:40:09;;;;;;;43.85;21.85;;;12.00;99.90;;;;;;5073030;28;20040;-83
2022/10/14 03:42:34;;;;;;;44.72;22.00;;;12.00;99.90;;;;;;5070601;28;20114;-82
2022/10/14 03:45:00;;;;;;;43.63;20.60;;;12.10;99.90;;;;;;5071290;28;20433;-83
2022/10/14 03:47:25;;;;;;;66.72;43.30;;;12.00;99.90;;;;;;5054661;28;20151;-82
2022/10/14 03:49:51;;;;;;;44.33;21.95;;;12.10;99.90;;;;;;5070918;28;20080;-83
2022/10/14 03:52:16;;;;;;;46.10;23.20;;;12.20;99.90;;;;;;5070862;28;20040;-83
2022/10/14 03:54:42;;;;;;;42.15;20.73;;;12.20;99.90;;;;;;5071292;28;20044;-83
2022/10/14 03:57:07;;;;;;;39.38;19.98;;;12.20;99.90;;;;;;5054657;28;20045;-83
2022/10/14 03:59:33;;;;;;;41.13;20.23;;;12.20;99.90;;;;;;5070942;28;20041;-83
2022/10/14 04:01:58;;;;;;;43.95;21.17;;;12.20;99.90;;;;;;5054057;28;20036;-83
2022/10/14 04:04:24;;;;;;;41.85;19.90;;;12.20;99.90;;;;;;5071158;28;20044;-83
2022/10/14 04:06:49;;;;;;;38.22;17.83;;;12.20;99.90;;;;;;5054390;28;20190;-83
2022/10/14 04:09:15;;;;;;;37.17;18.30;;;12.20;99.90;;;;;;5070937;28;20454;-83
2022/10/14 04:11:40;;;;;;;54.53;36.75;;;12.20;99.90;;;;;;5070623;28;20036;-83
2022/10/14 04:14:06;;;;;;;42.85;19.20;;;12.30;99.90;;;;;;5071268;28;20170;-82
2022/10/14 04:16:31;;;;;;;33.63;16.90;;;12.30;99.90;;;;;;5070861;28;20547;-83
2022/10/14 04:18:57;;;;;;;36.72;18.98;;;12.20;99.90;;;;;;5070110;28;20041;-82
2022/10/14 04:21:23;;;;;;;36.30;17.83;;;12.20;99.90;;;;;;5070561;28;20080;-83
2022/10/14 04:23:49;;;;;;;41.42;21.33;;;12.20;99.90;;;;;;5070684;28;20532;-83
2022/10/14 04:26:15;;;;;;;44.08;19.83;;;12.20;99.90;;;;;;5053686;28;20043;-82
2022/10/14 04:28:40;;;;;;;46.10;32.67;;;12.20;99.90;;;;;;5054043;28;20036;-83
2022/10/14 04:31:07;;;;;;;38.78;17.70;;;12.30;99.90;;;;;;5070562;28;20043;-82
2022/10/14 04:33:33;;;;;;;39.70;18.08;;;12.30;99.90;;;;;;5070451;28;20076;-83
2022/10/14 04:36:01;;;;;;;39.60;18.08;;;12.30;99.90;;;;;;5070674;28;20044;-82
2022/10/14 04:38:27;;;;;;;39.83;19.23;;;12.30;99.90;;;;;;5070579;28;20043;-83
2022/10/14 04:40:53;;;;;;;50.60;34.83;;;12.30;99.90;;;;;;5069971;28;20041;-82
2022/10/14 04:43:19;;;;;;;41.90;19.38;;;12.30;99.90;;;;;;5053776;28;20047;-83
2022/10/14 04:45:45;;;;;;;41.70;20.65;;;12.40;99.90;;;;;;5070331;28;20044;-83
2022/10/14 04:48:10;;;;;;;35.90;19.67;;;12.30;99.90;;;;;;5069974;28;20040;-82
2022/10/14 04:50:36;;;;;;;44.13;20.27;;;12.30;99.90;;;;;;5070675;28;20507;-83
2022/10/14 04:53:01;;;;;;;50.75;35.20;;;12.30;99.90;;;;;;5070135;28;20568;-83
2022/10/14 04:55:27;;;;;;;35.72;17.98;;;12.40;99.90;;;;;;5069963;28;20036;-83
2022/10/14 04:57:53;;;;;;;33.92;16.70;;;12.40;99.90;;;;;;5070234;28;20082;-82
2022/10/14 05:00:18;;;;;;;35.83;18.50;;;12.40;99.90;;;;;;5053068;28;20082;-82
2022/10/14 05:02:44;;;;;;;43.33;31.40;;;12.40;99.90;;;;;;5069884;28;20098;-82
2022/10/14 05:05:09;;;;;;;32.63;15.65;;;12.40;99.90;;;;;;5070124;28;20040;-83
2022/10/14 05:07:35;;;;;;;29.38;15.65;;;12.40;99.90;;;;;;5069998;28;20033;-83
2022/10/14 05:10:03;;;;;;;33.55;17.20;;;12.40;99.90;;;;;;5050966;28;20047;-83
2022/10/14 05:12:29;;;;;;;49.03;33.40;;;12.40;99.90;;;;;;5069576;28;20037;-83
2022/10/14 05:14:55;;;;;;;41.20;31.38;;;12.40;99.90;;;;;;5052592;28;20044;-83
2022/10/14 05:17:21;;;;;;;29.00;16.05;;;12.50;99.90;;;;;;5069820;28;20040;-82
2022/10/14 05:19:47;;;;;;;30.35;16.00;;;12.40;99.90;;;;;;5069231;28;20139;-83
2022/10/14 05:22:12;;;;;;;27.67;14.82;;;12.30;99.90;;;;;;5069342;28;20064;-83
2022/10/14 05:24:38;;;;;;;31.80;16.83;;;12.30;99.90;;;;;;5069446;28;20044;-83
2022/10/14 05:27:03;;;;;;;31.50;17.27;;;12.30;99.90;;;;;;5069820;28;20040;-83
2022/10/14 05:29:29;;;;;;;41.45;30.80;;;12.20;99.90;;;;;;5069352;28;20040;-83
2022/10/14 05:31:54;;;;;;;29.98;16.00;;;12.30;99.90;;;;;;5068889;28;20135;-82
2022/10/14 05:34:20;;;;;;;30.98;17.90;;;12.20;99.90;;;;;;5069672;28;20424;-83
2022/10/14 05:36:45;;;;;;;28.45;17.67;;;12.20;99.90;;;;;;5070245;28;20090;-83
2022/10/14 05:39:12;;;;;;;30.40;16.23;;;12.10;99.90;;;;;;5073364;28;20085;-82
2022/10/14 05:41:38;;;;;;;29.63;15.43;;;12.10;99.90;;;;;;5073378;28;20044;-82
2022/10/14 05:44:04;;;;;;;25.38;14.18;;;12.10;99.90;;;;;;5073085;28;20032;-83
2022/10/14 05:46:30;;;;;;;29.50;16.73;;;12.10;99.90;;;;;;5072826;28;20516;-83
2022/10/14 05:48:56;;;;;;;36.17;27.08;;;12.00;99.90;;;;;;5072667;28;20045;-82
2022/10/14 05:51:22;;;;;;;29.42;14.10;;;12.10;99.90;;;;;;5056197;28;20040;-82
2022/10/14 05:53:48;;;;;;;33.03;14.48;;;12.10;99.90;;;;;;5072723;28;20043;-83
2022/10/14 05:56:14;;;;;;;23.33;12.68;;;12.00;99.90;;;;;;5056199;28;20043;-82
2022/10/14 05:58:40;;;;;;;25.75;14.02;;;12.00;99.90;;;;;;5072851;28;20040;-82
2022/10/14 06:01:07;;;;;;;25.88;15.13;;;12.00;99.90;;;;;;5071950;28;20036;-82
2022/10/14 06:03:33;;;;;;;31.75;24.75;;;11.90;99.90;;;;;;5072840;28;20040;-82
2022/10/14 06:05:59;;;;;;;27.27;14.25;;;12.00;99.90;;;;;;5072827;28;20043;-82
2022/10/14 06:08:25;;;;;;;28.55;14.32;;;12.00;99.90;;;;;;5056163;28;20080;-82
2022/10/14 06:10:52;;;;;;;33.92;16.60;;;12.00;99.90;;;;;;5072588;28;20491;-82
2022/10/14 06:13:18;;;;;;;35.17;17.42;;;11.90;99.90;;;;;;5072351;28;20127;-82
2022/10/14 06:15:43;;;;;;;32.85;17.58;;;12.00;99.90;;;;;;5072899;28;20090;-82
2022/10/14 06:18:09;;;;;;;30.58;15.30;;;12.00;99.90;;;;;;5072302;28;20508;-82
2022/10/14 06:20:35;;;;;;;40.15;28.65;;;12.00;99.90;;;;;;5072340;28;20480;-82
2022/10/14 06:23:01;;;;;;;28.23;15.30;;;12.00;99.90;;;;;;5055720;28;20418;-82
2022/10/14 06:25:28;;;;;;;30.77;15.63;;;12.00;99.90;;;;;;5072546;28;20486;-82
2022/10/14 06:27:54;;;;;;;30.63;15.00;;;12.00;99.90;;;;;;5072644;28;20041;-82
2022/10/14 06:30:19;;;;;;;30.30;14.85;;;12.00;99.90;;;;;;5072085;28;20098;-82
2022/10/14 06:32:45;;;;;;;27.30;15.45;;;12.00;99.90;;;;;;5071960;28;20079;-82
2022/10/14 06:35:10;;;;;;;27.27;14.63;;;12.00;99.90;;;;;;5055343;28;20055;-82
2022/10/14 06:37:36;;;;;;;26.38;15.13;;;12.00;99.90;;;;;;5072255;28;20048;-82
2022/10/14 06:40:02;;;;;;;23.73;13.43;;;12.00;99.90;;;;;;5071917;28;20036;-82
2022/10/14 06:42:28;;;;;;;27.13;15.85;;;12.00;99.90;;;;;;5072003;28;20543;-82
2022/10/14 06:44:54;;;;;;;36.95;27.90;;;12.00;99.90;;;;;;5055807;28;20037;-82
2022/10/14 06:47:19;;;;;;;31.65;15.73;;;12.10;99.90;;;;;;5071670;28;20351;-82
2022/10/14 06:49:45;;;;;;;31.35;14.85;;;12.10;99.90;;;;;;5055732;28;20046;-82
2022/10/14 06:52:10;;;;;;;34.88;26.98;;;12.10;99.90;;;;;;5071651;28;20045;-82
2022/10/14 06:54:36;;;;;;;30.30;15.68;;;12.20;99.90;;;;;;5072114;28;20040;-82
2022/10/14 06:57:01;;;;;;;30.58;14.23;;;12.20;99.90;;;;;;5071933;28;20051;-82
2022/10/14 06:59:28;;;;;;;28.73;15.77;;;12.20;99.90;;;;;;5071569;28;20098;-82
2022/10/14 07:01:54;;;;;;;39.53;28.88;;;12.20;99.90;;;;;;5055114;28;20036;-82
2022/10/14 07:04:20;;;;;;;29.00;15.25;;;12.30;99.90;;;;;;5071768;28;20041;-82
2022/10/14 07:06:45;;;;;;;29.40;16.38;;;12.30;99.90;;;;;;5055046;28;20297;-82
2022/10/14 07:09:11;;;;;;;30.17;15.75;;;12.30;99.90;;;;;;5054998;28;20040;-83
2022/10/14 07:11:36;;;;;;;29.48;15.80;;;12.30;99.90;;;;;;5071241;28;20094;-83
2022/10/14 07:14:02;;;;;;;35.38;28.30;;;12.30;99.90;;;;;;5071654;28;20086;-82
2022/10/14 07:16:28;;;;;;;29.85;15.27;;;12.40;99.90;;;;;;5053768;28;20036;-82
2022/10/14 07:18:53;;;;;;;26.92;14.85;;;12.40;99.90;;;;;;5071640;28;20068;-82
2022/10/14 07:21:19;;;;;;;43.17;29.65;;;12.40;99.90;;;;;;5071101;28;20032;-82
2022/10/14 07:23:45;;;;;;;29.20;15.18;;;12.50;99.90;;;;;;5072846;28;20161;-83
2022/10/14 07:26:10;;;;;;;32.38;17.70;;;12.50;99.90;;;;;;5071768;28;20059;-83
2022/10/14 07:28:36;;;;;;;28.75;14.88;;;12.50;99.90;;;;;;5071024;28;20780;-82
2022/10/14 07:31:10;;;;;;;30.20;15.60;;;12.50;99.90;;;;;;5070937;28;20044;-82
2022/10/14 07:33:37;;;;;;;36.42;27.27;;;12.50;99.90;;;;;;5054779;28;20405;-82
2022/10/14 07:36:06;;;;;;;33.72;15.20;;;12.60;99.90;;;;;;5071393;28;20051;-82
2022/10/14 07:38:31;;;;;;;29.70;15.43;;;12.60;99.90;;;;;;5054507;28;20074;-82
2022/10/14 07:41:03;;;;;;;29.77;14.77;;;12.60;99.90;;;;;;5070549;28;20083;-82
2022/10/14 07:43:30;;;;;;;28.88;15.15;;;12.60;99.90;;;;;;5071269;28;20074;-82
2022/10/14 07:46:00;;;;;;;37.38;27.45;;;12.60;99.90;;;;;;5054477;28;20044;-82
2022/10/14 07:48:31;;;;;;;29.85;15.05;;;12.70;99.90;;;;;;5072451;28;20045;-83
2022/10/14 07:50:56;;;;;;;29.73;15.38;;;12.70;99.90;;;;;;5070465;28;20162;-82
2022/10/14 07:53:23;;;;;;;34.30;18.17;;;12.70;99.90;;;;;;5054168;28;20078;-83
2022/10/14 07:55:52;;;;;;;42.65;31.20;;;12.70;99.90;;;;;;5070773;28;20639;-82
2022/10/14 07:58:23;;;;;;;36.83;19.20;;;12.70;99.90;;;;;;5069981;28;20041;-82
2022/10/14 08:00:49;;;;;;;35.72;18.25;;;12.80;99.90;;;;;;5070201;28;20036;-82
2022/10/14 08:03:16;;;;;;;35.58;18.15;;;12.70;99.90;;;;;;5053836;28;20036;-82
2022/10/14 08:05:42;;;;;;;43.08;32.70;;;12.70;99.90;;;;;;5071072;28;20403;-82
2022/10/14 08:08:08;;;;;;;33.95;18.83;;;12.80;99.90;;;;;;5053354;28;20115;-82
2022/10/14 08:10:35;;;;;;;39.78;21.52;;;12.80;99.90;;;;;;5070391;28;20085;-82
2022/10/14 08:13:00;;;;;;;40.45;20.45;;;12.80;99.90;;;;;;5070128;28;20405;-82
2022/10/14 08:15:28;;;;;;;48.40;35.20;;;12.80;99.90;;;;;;5054134;28;20036;-82
2022/10/14 08:17:54;;;;;;;41.08;21.30;;;12.90;99.90;;;;;;5053736;28;20029;-82
2022/10/14 08:20:20;;;;;;;40.95;21.23;;;12.90;99.90;;;;;;5068525;28;20032;-82
2022/10/14 08:22:45;;;;;;;44.08;21.63;;;12.90;99.90;;;;;;5051265;28;20033;-82
2022/10/14 08:25:11;;;;;;;41.63;22.67;;;12.90;99.90;;;;;;5069727;28;20046;-82
2022/10/14 08:27:36;;;;;;;61.75;41.50;;;12.90;99.90;;;;;;5069328;28;20120;-82
2022/10/14 08:30:03;;;;;;;57.88;26.83;;;13.00;99.90;;;;;;5070069;28;20047;-82
2022/10/14 08:32:29;;;;;;;52.15;22.40;;;13.00;99.90;;;;;;5052999;28;20090;-82
2022/10/14 08:34:54;;;;;;;70.57;42.92;;;13.00;99.90;;;;;;5070252;28;20040;-82
2022/10/14 08:37:21;;;;;;;50.65;23.80;;;13.00;99.90;;;;;;5069721;28;20131;-82
2022/10/14 08:39:46;;;;;;;49.33;22.08;;;13.00;99.90;;;;;;5053038;28;20098;-82
2022/10/14 08:42:25;;;;;;;52.00;22.90;;;13.00;99.90;;;;;;5069147;28;20450;-83
2022/10/14 08:45:01;;;;;;;48.50;21.70;;;13.00;99.90;;;;;;5052822;28;20502;-83
2022/10/14 08:47:40;;;;;;;63.95;40.63;;;13.00;99.90;;;;;;5069927;28;20040;-83
2022/10/14 08:50:22;;;;;;;50.83;24.10;;;13.10;99.90;;;;;;5053223;28;20047;-83
2022/10/14 08:52:54;;;;;;;45.13;19.70;;;13.10;99.90;;;;;;5053018;28;20047;-82
2022/10/14 08:55:29;;;;;;;46.35;21.42;;;13.10;99.90;;;;;;5069838;28;20036;-83
2022/10/14 08:58:06;;;;;;;61.88;37.80;;;13.10;99.90;;;;;;5069394;28;20045;-82
2022/10/14 09:00:33;;;;;;;60.47;39.10;;;13.20;99.90;;;;;;5070422;28;20050;-82
2022/10/14 09:03:09;;;;;;;46.10;20.17;;;13.20;99.90;;;;;;5069683;28;20047;-82
2022/10/14 09:05:37;;;;;;;63.80;41.45;;;13.20;99.90;;;;;;5070257;28;20048;-83
2022/10/14 09:08:05;;;;;;;50.63;24.15;;;13.30;99.90;;;;;;5069476;28;20040;-82
2022/10/14 09:10:35;;;;;;;66.10;40.78;;;13.30;99.90;;;;;;5070062;28;20037;-82
2022/10/14 09:13:17;;;;;;;66.35;41.28;;;13.30;99.90;;;;;;5073542;28;20505;-83
2022/10/14 09:15:49;;;;;;;51.05;21.80;;;13.40;99.90;;;;;;5073964;28;20040;-83
2022/10/14 09:18:21;;;;;;;49.25;22.15;;;13.40;99.90;;;;;;5057228;28;20090;-83
2022/10/14 09:20:47;;;;;;;66.40;39.22;;;13.30;99.90;;;;;;5073755;28;20085;-83
2022/10/14 09:23:22;;;;;;;53.38;24.27;;;13.40;99.90;;;;;;5075100;28;20565;-83
2022/10/14 09:26:00;;;;;;;49.17;22.63;;;13.40;99.90;;;;;;5073164;28;20037;-83
2022/10/14 09:28:42;;;;;;;62.53;39.45;;;13.40;99.90;;;;;;5072148;28;20082;-83
2022/10/14 09:31:11;;;;;;;62.85;37.75;;;13.50;99.90;;;;;;5053878;28;20032;-83
2022/10/14 09:33:41;;;;;;;45.65;19.52;;;13.50;99.90;;;;;;5057239;28;20086;-83
2022/10/14 09:36:18;;;;;;;46.53;21.52;;;13.50;99.90;;;;;;5056859;28;20048;-83
2022/10/14 09:38:52;;;;;;;53.55;24.70;;;13.50;99.90;;;;;;5072734;28;20032;-83
2022/10/14 09:41:26;;;;;;;47.85;22.88;;;13.50;99.90;;;;;;5073173;28;20072;-83
2022/10/14 09:44:12;;;;;;;61.88;38.97;;;13.50;99.90;;;;;;5073300;28;20047;-81
2022/10/14 09:46:38;;;;;;;43.50;21.27;;;13.60;99.90;;;;;;5072916;28;20040;-81
2022/10/14 09:49:03;;;;;;;58.58;37.50;;;13.60;99.90;;;;;;5072980;28;20040;-81
2022/10/14 09:51:32;;;;;;;42.92;20.50;;;13.60;99.90;;;;;;5055448;28;20036;-81
2022/10/14 09:54:03;;;;;;;48.67;21.80;;;13.60;99.90;;;;;;5055830;28;20032;-81
2022/10/14 09:56:35;;;;;;;56.63;37.05;;;13.60;99.90;;;;;;5055978;28;20054;-81
2022/10/14 09:59:03;;;;;;;39.88;19.33;;;13.70;99.90;;;;;;5072447;28;20039;-81
2022/10/14 10:01:40;;;;;;;56.20;35.60;;;13.70;99.90;;;;;;5068108;28;20072;-81
2022/10/14 10:04:30;;;;;;;39.85;20.25;;;13.70;99.90;;;;;;5067436;28;20036;-81
2022/10/14 10:06:56;;;;;;;46.08;22.98;;;13.70;99.90;;;;;;5068849;28;20037;-81
2022/10/14 10:09:22;;;;;;;55.47;36.47;;;13.70;99.90;;;;;;5051159;28;20051;-81
2022/10/14 10:11:47;;;;;;;55.08;37.10;;;13.70;99.90;;;;;;5049521;28;20048;-81
2022/10/14 10:14:22;;;;;;;46.50;23.20;;;13.80;99.90;;;;;;5069012;28;20044;-81
2022/10/14 10:17:07;;;;;;;40.88;19.70;;;13.80;99.90;;;;;;5064945;28;20048;-81
2022/10/14 10:19:34;;;;;;;47.60;32.17;;;13.70;99.90;;;;;;5049458;28;20060;-81
2022/10/14 10:22:18;;;;;;;41.13;19.15;;;13.80;99.90;;;;;;5050885;28;20036;-81
2022/10/14 10:24:45;;;;;;;38.88;18.00;;;13.80;99.90;;;;;;5049490;28;20037;-81
2022/10/14 10:27:24;;;;;;;52.63;33.88;;;13.70;99.90;;;;;;5033234;28;20564;-81
2022/10/14 10:29:50;;;;;;;49.85;32.90;;;13.90;99.90;;;;;;5049350;28;20170;-81
2022/10/14 10:32:25;;;;;;;50.78;32.47;;;13.90;99.90;;;;;;5032308;28;20140;-81
2022/10/14 10:35:10;;;;;;;47.65;32.78;;;13.90;99.90;;;;;;5049730;28;20045;-81
2022/10/14 10:38:01;;;;;;;39.00;19.25;;;14.00;99.90;;;;;;5049188;28;20041;-80
2022/10/14 10:40:31;;;;;;;40.58;18.52;;;13.90;99.90;;;;;;5049255;28;20414;-81
2022/10/14 10:43:06;;;;;;;42.47;20.20;;;13.90;99.90;;;;;;5048982;28;20055;-81
2022/10/14 10:45:37;;;;;;;48.50;33.53;;;13.90;99.90;;;;;;5049346;28;20087;-81
2022/10/14 10:48:12;;;;;;;42.10;21.13;;;14.00;99.90;;;;;;5049002;28;20623;-81
2022/10/14 10:50:56;;;;;;;55.50;35.72;;;13.90;99.90;;;;;;5049503;28;20107;-81
2022/10/14 10:53:49;;;;;;;45.25;22.90;;;13.90;99.90;;;;;;5049057;28;20506;-81
2022/10/14 10:56:33;;;;;;;58.20;38.45;;;14.00;99.90;;;;;;5049116;28;20040;-82
2022/10/14 10:59:34;;;;;;;44.75;21.48;;;14.00;99.90;;;;;;5032571;28;20483;-81
2022/10/14 11:02:38;;;;;;;57.35;37.85;;;14.00;99.90;;;;;;5048653;28;20051;-81
2022/10/14 11:05:22;;;;;;;42.45;22.00;;;14.10;99.90;;;;;;5032329;28;20045;-81
2022/10/14 11:14:14;;;;;;;51.65;23.50;;;14.20;99.90;;;;;;5049681;28;20503;-81
2022/10/14 11:17:00;;;;;;;45.92;21.48;;;14.10;99.90;;;;;;5049208;28;20127;-81
2022/10/14 11:19:42;;;;;;;58.95;40.38;;;14.20;99.90;;;;;;5050401;28;20076;-81
2022/10/14 11:22:30;;;;;;;49.97;22.92;;;14.20;99.90;;;;;;5067982;28;20409;-82
2022/10/14 11:25:17;;;;;;;46.13;24.05;;;14.30;99.90;;;;;;5051757;28;20049;-81
2022/10/14 11:27:56;;;;;;;59.72;41.45;;;14.30;99.90;;;;;;5068684;28;20042;-82
2022/10/14 11:30:35;;;;;;;48.42;26.73;;;14.40;99.90;;;;;;5068463;28;20131;-82
2022/10/14 11:33:38;;;;;;;63.33;43.65;;;14.40;99.90;;;;;;5051462;28;20048;-82
2022/10/14 11:36:18;;;;;;;51.47;25.30;;;14.50;99.90;;;;;;5050921;28;20501;-82
2022/10/14 11:39:02;;;;;;;60.75;43.88;;;14.50;99.90;;;;;;5068062;28;20120;-82
2022/10/14 11:41:35;;;;;;;50.88;27.38;;;14.60;99.90;;;;;;5051541;28;20519;-82
2022/10/14 11:44:25;;;;;;;68.18;46.85;;;14.60;99.90;;;;;;5050213;28;20036;-82
2022/10/14 11:46:55;;;;;;;57.00;44.03;;;14.70;99.90;;;;;;5066554;28;20053;-82
2022/10/14 11:49:29;;;;;;;52.47;29.50;;;14.70;99.90;;;;;;5067296;28;20513;-82
2022/10/14 11:52:01;;;;;;;61.17;45.42;;;14.70;99.90;;;;;;5066914;28;20097;-82
2022/10/14 11:54:51;;;;;;;45.43;25.77;;;14.80;99.90;;;;;;5067440;28;20044;-82
2022/10/14 11:57:40;;;;;;;55.72;44.20;;;14.80;99.90;;;;;;5065799;28;20048;-80
2022/10/14 12:00:11;;;;;;;56.38;43.63;;;14.80;99.90;;;;;;5051081;28;20056;-82
2022/10/14 12:02:39;;;;;;;42.53;28.13;;;14.80;99.90;;;;;;5050005;28;20048;-82
2022/10/14 12:05:17;;;;;;;47.22;41.20;;;14.80;99.90;;;;;;5068289;28;20033;-82
2022/10/14 12:08:20;;;;;;;41.10;26.30;;;14.90;99.90;;;;;;5067780;28;20067;-82
2022/10/14 12:11:22;;;;;;;50.97;39.58;;;14.90;99.90;;;;;;5051294;28;20048;-82
2022/10/14 12:13:51;;;;;;;35.28;31.52;;;14.90;99.90;;;;;;5067843;28;20041;-82
2022/10/14 12:16:22;;;;;;;38.72;32.35;;;14.90;99.90;;;;;;5067815;28;20709;-82
2022/10/14 12:18:55;;;;;;;28.67;20.80;;;15.00;99.90;;;;;;5050944;28;20089;-82
2022/10/14 12:21:26;;;;;;;33.70;30.10;;;15.00;99.90;;;;;;5050976;28;20123;-82
2022/10/14 12:24:08;;;;;;;27.45;18.83;;;15.10;99.90;;;;;;5067672;28;20055;-82
2022/10/14 12:27:03;;;;;;;32.20;28.92;;;15.00;99.90;;;;;;5051268;28;20208;-82
2022/10/14 12:29:36;;;;;;;25.23;18.55;;;15.10;99.90;;;;;;5065247;28;20048;-82
2022/10/14 12:32:06;;;;;;;30.55;27.55;;;15.10;99.90;;;;;;5066755;28;20032;-82
2022/10/14 12:34:42;;;;;;;24.48;17.80;;;15.10;99.90;;;;;;5066883;28;20052;-82
2022/10/14 12:37:22;;;;;;;27.77;25.10;;;15.20;99.90;;;;;;5067156;28;20098;-82
2022/10/14 12:39:53;;;;;;;27.73;25.02;;;15.20;99.90;;;;;;5049831;28;20075;-82
2022/10/14 12:42:20;;;;;;;22.40;15.93;;;15.20;99.90;;;;;;5065477;28;20097;-84
2022/10/14 12:44:55;;;;;;;25.88;23.17;;;15.30;99.90;;;;;;5049207;28;20538;-84
2022/10/14 12:47:34;;;;;;;27.38;24.65;;;15.30;99.90;;;;;;5065295;28;20494;-84
2022/10/14 12:50:04;;;;;;;27.85;25.08;;;15.30;99.90;;;;;;5065794;28;20139;-84